<?xml version="1.0" encoding="UTF-8" standalone="no" ?>
<gpx xmlns="http://www.topografix.com/GPX/1/1" xmlns:xsi="http://www.w3.org/2001/XMLSchema-instance" xsi:schemaLocation="http://www.topografix.com/GPX/1/1 http://www.topografix.com/GPX/1/1/gpx.xsd" version="1.1" creator="VisuGPX - https://www.visugpx.com">
  <metadata>
    <name>PlansHotonnes-Lalleyriat 19km</name>
  </metadata>
  <trk>
    <name><![CDATA[Trail PlansHotonnes-Lalleyriat]]></name>
    <extensions>
      <line xmlns="http://www.topografix.com/GPX/gpx_style/0/2">
        <color>0000FF</color>
        <width>4</width>
      </line>
    </extensions>
    <trkseg>
      <trkpt lat="46.15047" lon="5.71221">
        <ele>847.550555</ele>
        <time>2022-04-10T17:46:08.216Z</time>
      </trkpt>
      <trkpt lat="46.15046" lon="5.7121">
        <ele>847.550555</ele>
        <time>2022-04-10T17:46:10.786Z</time>
      </trkpt>
      <trkpt lat="46.15077" lon="5.71176">
        <ele>847.550555</ele>
        <time>2022-04-10T17:46:24.075Z</time>
      </trkpt>
      <trkpt lat="46.15107" lon="5.71171">
        <ele>847.550555</ele>
        <time>2022-04-10T17:46:34.254Z</time>
      </trkpt>
      <trkpt lat="46.15154" lon="5.71303">
        <ele>847.474389</ele>
        <time>2022-04-10T17:47:09.982Z</time>
      </trkpt>
      <trkpt lat="46.15164" lon="5.71322">
        <ele>847.460691</ele>
        <time>2022-04-10T17:47:15.975Z</time>
      </trkpt>
      <trkpt lat="46.15187" lon="5.71332">
        <ele>847.440028</ele>
        <time>2022-04-10T17:47:25.246Z</time>
      </trkpt>
      <trkpt lat="46.15181" lon="5.71367">
        <ele>847.418854</ele>
        <time>2022-04-10T17:47:35.686Z</time>
      </trkpt>
      <trkpt lat="46.1516" lon="5.71453">
        <ele>851.034534</ele>
        <time>2022-04-10T17:48:03.686Z</time>
      </trkpt>
      <trkpt lat="46.15154" lon="5.71605">
        <ele>860.964062</ele>
        <time>2022-04-10T17:49:08.752Z</time>
      </trkpt>
      <trkpt lat="46.15144" lon="5.71647">
        <ele>863.874724</ele>
        <time>2022-04-10T17:49:30.146Z</time>
      </trkpt>
      <trkpt lat="46.15121" lon="5.71673">
        <ele>866.703808</ele>
        <time>2022-04-10T17:49:48.734Z</time>
      </trkpt>
      <trkpt lat="46.15097" lon="5.71678">
        <ele>869.135246</ele>
        <time>2022-04-10T17:50:03.358Z</time>
      </trkpt>
      <trkpt lat="46.15083" lon="5.71692">
        <ele>870.85547</ele>
        <time>2022-04-10T17:50:16.357Z</time>
      </trkpt>
      <trkpt lat="46.15071" lon="5.71696">
        <ele>872.093025</ele>
        <time>2022-04-10T17:50:25.268Z</time>
      </trkpt>
      <trkpt lat="46.15064" lon="5.71707">
        <ele>873.12162</ele>
        <time>2022-04-10T17:50:32.551Z</time>
      </trkpt>
      <trkpt lat="46.15073" lon="5.71764">
        <ele>877.143339</ele>
        <time>2022-04-10T17:51:02.174Z</time>
      </trkpt>
      <trkpt lat="46.15068" lon="5.71846">
        <ele>882.261429</ele>
        <time>2022-04-10T17:51:37.860Z</time>
      </trkpt>
      <trkpt lat="46.15053" lon="5.71884">
        <ele>881.671881</ele>
        <time>2022-04-10T17:51:55.154Z</time>
      </trkpt>
      <trkpt lat="46.15038" lon="5.71899">
        <ele>881.319393</ele>
        <time>2022-04-10T17:52:03.249Z</time>
      </trkpt>
      <trkpt lat="46.15154" lon="5.7203">
        <ele>877.748404</ele>
        <time>2022-04-10T17:53:00.196Z</time>
      </trkpt>
      <trkpt lat="46.15163" lon="5.72063">
        <ele>876.43189</ele>
        <time>2022-04-10T17:53:09.357Z</time>
      </trkpt>
      <trkpt lat="46.15178" lon="5.72067">
        <ele>875.645971</ele>
        <time>2022-04-10T17:53:13.917Z</time>
      </trkpt>
      <trkpt lat="46.15197" lon="5.72126">
        <ele>873.214607</ele>
        <time>2022-04-10T17:53:28.640Z</time>
      </trkpt>
      <trkpt lat="46.15216" lon="5.72161">
        <ele>871.560383</ele>
        <time>2022-04-10T17:53:38.887Z</time>
      </trkpt>
      <trkpt lat="46.1526" lon="5.72268">
        <ele>867.539318</ele>
        <time>2022-04-10T17:54:08.367Z</time>
      </trkpt>
      <trkpt lat="46.1526" lon="5.72286">
        <ele>867.068062</ele>
        <time>2022-04-10T17:54:12.488Z</time>
      </trkpt>
      <trkpt lat="46.15248" lon="5.72301">
        <ele>866.44432</ele>
        <time>2022-04-10T17:54:17.846Z</time>
      </trkpt>
      <trkpt lat="46.15247" lon="5.72322">
        <ele>865.874736</ele>
        <time>2022-04-10T17:54:22.854Z</time>
      </trkpt>
      <trkpt lat="46.15275" lon="5.72413">
        <ele>863.150853</ele>
        <time>2022-04-10T17:54:46.722Z</time>
      </trkpt>
      <trkpt lat="46.15283" lon="5.72456">
        <ele>861.987322</ele>
        <time>2022-04-10T17:54:57.282Z</time>
      </trkpt>
      <trkpt lat="46.15297" lon="5.7248">
        <ele>861.348058</ele>
        <time>2022-04-10T17:55:03.673Z</time>
      </trkpt>
      <trkpt lat="46.1529" lon="5.72512">
        <ele>860.646301</ele>
        <time>2022-04-10T17:55:11.641Z</time>
      </trkpt>
      <trkpt lat="46.15295" lon="5.72561">
        <ele>859.621225</ele>
        <time>2022-04-10T17:55:23.144Z</time>
      </trkpt>
      <trkpt lat="46.15318" lon="5.72607">
        <ele>858.465812</ele>
        <time>2022-04-10T17:55:36.405Z</time>
      </trkpt>
      <trkpt lat="46.15345" lon="5.72628">
        <ele>857.518633</ele>
        <time>2022-04-10T17:55:47.876Z</time>
      </trkpt>
      <trkpt lat="46.15364" lon="5.72634">
        <ele>856.958417</ele>
        <time>2022-04-10T17:55:54.090Z</time>
      </trkpt>
      <trkpt lat="46.15336" lon="5.72709">
        <ele>857.920093</ele>
        <time>2022-04-10T17:56:18.414Z</time>
      </trkpt>
      <trkpt lat="46.15314" lon="5.72824">
        <ele>859.756278</ele>
        <time>2022-04-10T17:56:51.911Z</time>
      </trkpt>
      <trkpt lat="46.153" lon="5.72855">
        <ele>860.323046</ele>
        <time>2022-04-10T17:57:04.693Z</time>
      </trkpt>
      <trkpt lat="46.15242" lon="5.7285">
        <ele>859.868204</ele>
        <time>2022-04-10T17:57:29.486Z</time>
      </trkpt>
      <trkpt lat="46.15214" lon="5.72938">
        <ele>858.334587</ele>
        <time>2022-04-10T17:57:53.548Z</time>
      </trkpt>
      <trkpt lat="46.15198" lon="5.72946">
        <ele>857.944752</ele>
        <time>2022-04-10T17:57:59.267Z</time>
      </trkpt>
      <trkpt lat="46.15166" lon="5.72949">
        <ele>857.228905</ele>
        <time>2022-04-10T17:58:09.541Z</time>
      </trkpt>
      <trkpt lat="46.15056" lon="5.72999">
        <ele>852.577754</ele>
        <time>2022-04-10T17:58:45.475Z</time>
      </trkpt>
      <trkpt lat="46.14965" lon="5.72998">
        <ele>848.583476</ele>
        <time>2022-04-10T17:59:17.188Z</time>
      </trkpt>
      <trkpt lat="46.14927" lon="5.72982">
        <ele>851.17439</ele>
        <time>2022-04-10T17:59:33.925Z</time>
      </trkpt>
      <trkpt lat="46.14918" lon="5.72972">
        <ele>851.920076</ele>
        <time>2022-04-10T17:59:38.490Z</time>
      </trkpt>
      <trkpt lat="46.14871" lon="5.72917">
        <ele>855.8325</ele>
        <time>2022-04-10T18:00:08.623Z</time>
      </trkpt>
      <trkpt lat="46.14813" lon="5.72866">
        <ele>860.275202</ele>
        <time>2022-04-10T18:00:48.487Z</time>
      </trkpt>
      <trkpt lat="46.14777" lon="5.72861">
        <ele>865.630519</ele>
        <time>2022-04-10T18:01:13.370Z</time>
      </trkpt>
      <trkpt lat="46.14724" lon="5.72827">
        <ele>874.21652</ele>
        <time>2022-04-10T18:01:55.768Z</time>
      </trkpt>
      <trkpt lat="46.14692" lon="5.72815">
        <ele>879.083003</ele>
        <time>2022-04-10T18:02:19.832Z</time>
      </trkpt>
      <trkpt lat="46.14601" lon="5.72803">
        <ele>892.99242</ele>
        <time>2022-04-10T18:03:29.771Z</time>
      </trkpt>
      <trkpt lat="46.1446" lon="5.72768">
        <ele>916.175147</ele>
        <time>2022-04-10T18:05:20.906Z</time>
      </trkpt>
      <trkpt lat="46.14435" lon="5.72767">
        <ele>919.286007</ele>
        <time>2022-04-10T18:05:37.898Z</time>
      </trkpt>
      <trkpt lat="46.14372" lon="5.72774">
        <ele>927.198166</ele>
        <time>2022-04-10T18:06:18.636Z</time>
      </trkpt>
      <trkpt lat="46.14357" lon="5.72791">
        <ele>929.567729</ele>
        <time>2022-04-10T18:06:30.573Z</time>
      </trkpt>
      <trkpt lat="46.14343" lon="5.7282">
        <ele>932.639053</ele>
        <time>2022-04-10T18:06:46.768Z</time>
      </trkpt>
      <trkpt lat="46.14331" lon="5.72827">
        <ele>934.293969</ele>
        <time>2022-04-10T18:06:54.962Z</time>
      </trkpt>
      <trkpt lat="46.14316" lon="5.72817">
        <ele>936.333233</ele>
        <time>2022-04-10T18:07:05.743Z</time>
      </trkpt>
      <trkpt lat="46.14298" lon="5.72793">
        <ele>939.3736</ele>
        <time>2022-04-10T18:07:20.955Z</time>
      </trkpt>
      <trkpt lat="46.14267" lon="5.72764">
        <ele>943.921704</ele>
        <time>2022-04-10T18:07:45.548Z</time>
      </trkpt>
      <trkpt lat="46.14239" lon="5.72758">
        <ele>947.281937</ele>
        <time>2022-04-10T18:08:03.662Z</time>
      </trkpt>
      <trkpt lat="46.14221" lon="5.72772">
        <ele>949.825334</ele>
        <time>2022-04-10T18:08:17.955Z</time>
      </trkpt>
      <trkpt lat="46.14195" lon="5.72823">
        <ele>955.162088</ele>
        <time>2022-04-10T18:08:46.661Z</time>
      </trkpt>
      <trkpt lat="46.14159" lon="5.72867">
        <ele>960.832469</ele>
        <time>2022-04-10T18:09:17.143Z</time>
      </trkpt>
      <trkpt lat="46.14143" lon="5.72879">
        <ele>962.858772</ele>
        <time>2022-04-10T18:09:29.751Z</time>
      </trkpt>
      <trkpt lat="46.14109" lon="5.72869">
        <ele>966.733226</ele>
        <time>2022-04-10T18:09:52.574Z</time>
      </trkpt>
      <trkpt lat="46.14068" lon="5.72902">
        <ele>971.941165</ele>
        <time>2022-04-10T18:10:21.228Z</time>
      </trkpt>
      <trkpt lat="46.14033" lon="5.72863">
        <ele>976.85965</ele>
        <time>2022-04-10T18:10:47.565Z</time>
      </trkpt>
      <trkpt lat="46.14021" lon="5.72861">
        <ele>978.215935</ele>
        <time>2022-04-10T18:10:54.923Z</time>
      </trkpt>
      <trkpt lat="46.14008" lon="5.72884">
        <ele>980.541737</ele>
        <time>2022-04-10T18:11:07.622Z</time>
      </trkpt>
      <trkpt lat="46.13995" lon="5.72922">
        <ele>983.755425</ele>
        <time>2022-04-10T18:11:25.789Z</time>
      </trkpt>
      <trkpt lat="46.13966" lon="5.72935">
        <ele>987.04943</ele>
        <time>2022-04-10T18:11:45.120Z</time>
      </trkpt>
      <trkpt lat="46.13944" lon="5.72961">
        <ele>990.180249</ele>
        <time>2022-04-10T18:12:03.525Z</time>
      </trkpt>
      <trkpt lat="46.13854" lon="5.73024">
        <ele>1000.851449</ele>
        <time>2022-04-10T18:13:07.182Z</time>
      </trkpt>
      <trkpt lat="46.13812" lon="5.73034">
        <ele>1004.270844</ele>
        <time>2022-04-10T18:13:31.375Z</time>
      </trkpt>
      <trkpt lat="46.13773" lon="5.73097">
        <ele>1009.073039</ele>
        <time>2022-04-10T18:14:03.241Z</time>
      </trkpt>
      <trkpt lat="46.13772" lon="5.73129">
        <ele>1010.872481</ele>
        <time>2022-04-10T18:14:14.261Z</time>
      </trkpt>
      <trkpt lat="46.13799" lon="5.73173">
        <ele>1014.248859</ele>
        <time>2022-04-10T18:14:34.185Z</time>
      </trkpt>
      <trkpt lat="46.13801" lon="5.7323">
        <ele>1016.282038</ele>
        <time>2022-04-10T18:14:52.739Z</time>
      </trkpt>
      <trkpt lat="46.13825" lon="5.73272">
        <ele>1018.093118</ele>
        <time>2022-04-10T18:15:10.286Z</time>
      </trkpt>
      <trkpt lat="46.13843" lon="5.73338">
        <ele>1020.438294</ele>
        <time>2022-04-10T18:15:32.326Z</time>
      </trkpt>
      <trkpt lat="46.13835" lon="5.73407">
        <ele>1022.722532</ele>
        <time>2022-04-10T18:15:53.537Z</time>
      </trkpt>
      <trkpt lat="46.13845" lon="5.73425">
        <ele>1023.383646</ele>
        <time>2022-04-10T18:16:00.615Z</time>
      </trkpt>
      <trkpt lat="46.13847" lon="5.73442">
        <ele>1023.696792</ele>
        <time>2022-04-10T18:16:05.579Z</time>
      </trkpt>
      <trkpt lat="46.13827" lon="5.73488">
        <ele>1024.689967</ele>
        <time>2022-04-10T18:16:21.367Z</time>
      </trkpt>
      <trkpt lat="46.1381" lon="5.73506">
        <ele>1025.228614</ele>
        <time>2022-04-10T18:16:29.952Z</time>
      </trkpt>
      <trkpt lat="46.13786" lon="5.73519">
        <ele>1025.9251</ele>
        <time>2022-04-10T18:16:41.138Z</time>
      </trkpt>
      <trkpt lat="46.13769" lon="5.73515">
        <ele>1026.374837</ele>
        <time>2022-04-10T18:16:48.263Z</time>
      </trkpt>
      <trkpt lat="46.13761" lon="5.73502">
        <ele>1026.709923</ele>
        <time>2022-04-10T18:16:53.554Z</time>
      </trkpt>
      <trkpt lat="46.13755" lon="5.73465">
        <ele>1027.397276</ele>
        <time>2022-04-10T18:17:04.315Z</time>
      </trkpt>
      <trkpt lat="46.1374" lon="5.73437">
        <ele>1028.003447</ele>
        <time>2022-04-10T18:17:13.660Z</time>
      </trkpt>
      <trkpt lat="46.1368" lon="5.73382">
        <ele>1028.684713</ele>
        <time>2022-04-10T18:17:39.787Z</time>
      </trkpt>
      <trkpt lat="46.13651" lon="5.73354">
        <ele>1029.023912</ele>
        <time>2022-04-10T18:17:52.675Z</time>
      </trkpt>
      <trkpt lat="46.13634" lon="5.7335">
        <ele>1029.194298</ele>
        <time>2022-04-10T18:17:59.244Z</time>
      </trkpt>
      <trkpt lat="46.13615" lon="5.73368">
        <ele>1029.409365</ele>
        <time>2022-04-10T18:18:07.381Z</time>
      </trkpt>
      <trkpt lat="46.13568" lon="5.7339">
        <ele>1031.145895</ele>
        <time>2022-04-10T18:18:28.700Z</time>
      </trkpt>
      <trkpt lat="46.13516" lon="5.73411">
        <ele>1035.543709</ele>
        <time>2022-04-10T18:18:59.447Z</time>
      </trkpt>
      <trkpt lat="46.13493" lon="5.73414">
        <ele>1037.407376</ele>
        <time>2022-04-10T18:19:14.932Z</time>
      </trkpt>
      <trkpt lat="46.1347" lon="5.73403">
        <ele>1039.314709</ele>
        <time>2022-04-10T18:19:27.628Z</time>
      </trkpt>
      <trkpt lat="46.13449" lon="5.73382">
        <ele>1041.420109</ele>
        <time>2022-04-10T18:19:43.140Z</time>
      </trkpt>
      <trkpt lat="46.13426" lon="5.73378">
        <ele>1043.299017</ele>
        <time>2022-04-10T18:20:01.829Z</time>
      </trkpt>
      <trkpt lat="46.13405" lon="5.73388">
        <ele>1046.404039</ele>
        <time>2022-04-10T18:20:19.009Z</time>
      </trkpt>
      <trkpt lat="46.13395" lon="5.7341">
        <ele>1049.921217</ele>
        <time>2022-04-10T18:20:35.605Z</time>
      </trkpt>
      <trkpt lat="46.13405" lon="5.73435">
        <ele>1054.060998</ele>
        <time>2022-04-10T18:20:56.185Z</time>
      </trkpt>
      <trkpt lat="46.13391" lon="5.73453">
        <ele>1057.873397</ele>
        <time>2022-04-10T18:21:17.473Z</time>
      </trkpt>
      <trkpt lat="46.13352" lon="5.73449">
        <ele>1065.784157</ele>
        <time>2022-04-10T18:22:04.062Z</time>
      </trkpt>
      <trkpt lat="46.13318" lon="5.73432">
        <ele>1073.015246</ele>
        <time>2022-04-10T18:22:47.123Z</time>
      </trkpt>
      <trkpt lat="46.13253" lon="5.7337">
        <ele>1091.046338</ele>
        <time>2022-04-10T18:24:10.014Z</time>
      </trkpt>
      <trkpt lat="46.13234" lon="5.73307">
        <ele>1103.428568</ele>
        <time>2022-04-10T18:25:13.975Z</time>
      </trkpt>
      <trkpt lat="46.13221" lon="5.73298">
        <ele>1107.024647</ele>
        <time>2022-04-10T18:25:34.590Z</time>
      </trkpt>
      <trkpt lat="46.13181" lon="5.73289">
        <ele>1117.576404</ele>
        <time>2022-04-10T18:26:32.880Z</time>
      </trkpt>
      <trkpt lat="46.13163" lon="5.73274">
        <ele>1122.951948</ele>
        <time>2022-04-10T18:26:57.181Z</time>
      </trkpt>
      <trkpt lat="46.13148" lon="5.73277">
        <ele>1126.898536</ele>
        <time>2022-04-10T18:27:19.959Z</time>
      </trkpt>
      <trkpt lat="46.13122" lon="5.73322">
        <ele>1136.603216</ele>
        <time>2022-04-10T18:28:10.024Z</time>
      </trkpt>
      <trkpt lat="46.13103" lon="5.73377">
        <ele>1146.475211</ele>
        <time>2022-04-10T18:29:02.326Z</time>
      </trkpt>
      <trkpt lat="46.13105" lon="5.73439">
        <ele>1156.751241</ele>
        <time>2022-04-10T18:29:56.619Z</time>
      </trkpt>
      <trkpt lat="46.13117" lon="5.73532">
        <ele>1170.903298</ele>
        <time>2022-04-10T18:31:12.873Z</time>
      </trkpt>
      <trkpt lat="46.13114" lon="5.7359">
        <ele>1175.609745</ele>
        <time>2022-04-10T18:31:45.932Z</time>
      </trkpt>
      <trkpt lat="46.13127" lon="5.73677">
        <ele>1182.90718</ele>
        <time>2022-04-10T18:32:33.380Z</time>
      </trkpt>
      <trkpt lat="46.13129" lon="5.73762">
        <ele>1189.762524</ele>
        <time>2022-04-10T18:33:09.819Z</time>
      </trkpt>
      <trkpt lat="46.13121" lon="5.73771">
        <ele>1190.748155</ele>
        <time>2022-04-10T18:33:15.669Z</time>
      </trkpt>
      <trkpt lat="46.13102" lon="5.73775">
        <ele>1191.071791</ele>
        <time>2022-04-10T18:33:25.745Z</time>
      </trkpt>
      <trkpt lat="46.1308" lon="5.73789">
        <ele>1191.475956</ele>
        <time>2022-04-10T18:33:37.318Z</time>
      </trkpt>
      <trkpt lat="46.13003" lon="5.7376">
        <ele>1192.807677</ele>
        <time>2022-04-10T18:34:12.448Z</time>
      </trkpt>
      <trkpt lat="46.12959" lon="5.73769">
        <ele>1193.550333</ele>
        <time>2022-04-10T18:34:32.046Z</time>
      </trkpt>
      <trkpt lat="46.12927" lon="5.73762">
        <ele>1193.948074</ele>
        <time>2022-04-10T18:34:46.295Z</time>
      </trkpt>
      <trkpt lat="46.1291" lon="5.73769">
        <ele>1194.13013</ele>
        <time>2022-04-10T18:34:54.428Z</time>
      </trkpt>
      <trkpt lat="46.12902" lon="5.73784">
        <ele>1194.259977</ele>
        <time>2022-04-10T18:35:00.015Z</time>
      </trkpt>
      <trkpt lat="46.12871" lon="5.7379">
        <ele>1194.564006</ele>
        <time>2022-04-10T18:35:13.592Z</time>
      </trkpt>
      <trkpt lat="46.12862" lon="5.7378">
        <ele>1194.674928</ele>
        <time>2022-04-10T18:35:18.666Z</time>
      </trkpt>
      <trkpt lat="46.12841" lon="5.73771">
        <ele>1194.901489</ele>
        <time>2022-04-10T18:35:28.773Z</time>
      </trkpt>
      <trkpt lat="46.12793" lon="5.73736">
        <ele>1195.439404</ele>
        <time>2022-04-10T18:35:53.485Z</time>
      </trkpt>
      <trkpt lat="46.12714" lon="5.73654">
        <ele>1199.456721</ele>
        <time>2022-04-10T18:36:42.332Z</time>
      </trkpt>
      <trkpt lat="46.12655" lon="5.73624">
        <ele>1202.273982</ele>
        <time>2022-04-10T18:37:17.269Z</time>
      </trkpt>
      <trkpt lat="46.12528" lon="5.7358">
        <ele>1208.766723</ele>
        <time>2022-04-10T18:38:31.180Z</time>
      </trkpt>
      <trkpt lat="46.12419" lon="5.73564">
        <ele>1212.569247</ele>
        <time>2022-04-10T18:39:27.804Z</time>
      </trkpt>
      <trkpt lat="46.12362" lon="5.73575">
        <ele>1212.192594</ele>
        <time>2022-04-10T18:39:54.709Z</time>
      </trkpt>
      <trkpt lat="46.12125" lon="5.73512">
        <ele>1203.582598</ele>
        <time>2022-04-10T18:41:30.649Z</time>
      </trkpt>
      <trkpt lat="46.11981" lon="5.73499">
        <ele>1191.110858</ele>
        <time>2022-04-10T18:42:21.819Z</time>
      </trkpt>
      <trkpt lat="46.11913" lon="5.73505">
        <ele>1184.803966</ele>
        <time>2022-04-10T18:42:45.266Z</time>
      </trkpt>
      <trkpt lat="46.11853" lon="5.73511">
        <ele>1182.171416</ele>
        <time>2022-04-10T18:43:07.699Z</time>
      </trkpt>
      <trkpt lat="46.11778" lon="5.73546">
        <ele>1178.710844</ele>
        <time>2022-04-10T18:43:40.032Z</time>
      </trkpt>
      <trkpt lat="46.11698" lon="5.73506">
        <ele>1177.997835</ele>
        <time>2022-04-10T18:44:16.543Z</time>
      </trkpt>
      <trkpt lat="46.11636" lon="5.73456">
        <ele>1179.399225</ele>
        <time>2022-04-10T18:44:50.696Z</time>
      </trkpt>
      <trkpt lat="46.11598" lon="5.73437">
        <ele>1180.199302</ele>
        <time>2022-04-10T18:45:11.799Z</time>
      </trkpt>
      <trkpt lat="46.1158" lon="5.73421">
        <ele>1180.621537</ele>
        <time>2022-04-10T18:45:22.591Z</time>
      </trkpt>
      <trkpt lat="46.11564" lon="5.73418">
        <ele>1180.878328</ele>
        <time>2022-04-10T18:45:30.822Z</time>
      </trkpt>
      <trkpt lat="46.11524" lon="5.73444">
        <ele>1181.601665</ele>
        <time>2022-04-10T18:45:52.810Z</time>
      </trkpt>
      <trkpt lat="46.11493" lon="5.73455">
        <ele>1182.116517</ele>
        <time>2022-04-10T18:46:07.835Z</time>
      </trkpt>
      <trkpt lat="46.11465" lon="5.73447">
        <ele>1182.585283</ele>
        <time>2022-04-10T18:46:20.929Z</time>
      </trkpt>
      <trkpt lat="46.11418" lon="5.73446">
        <ele>1183.350989</ele>
        <time>2022-04-10T18:46:41.864Z</time>
      </trkpt>
      <trkpt lat="46.11345" lon="5.73399">
        <ele>1182.224296</ele>
        <time>2022-04-10T18:47:15.641Z</time>
      </trkpt>
      <trkpt lat="46.11258" lon="5.73368">
        <ele>1180.392659</ele>
        <time>2022-04-10T18:47:52.403Z</time>
      </trkpt>
      <trkpt lat="46.11152" lon="5.7336">
        <ele>1179.034173</ele>
        <time>2022-04-10T18:48:36.484Z</time>
      </trkpt>
      <trkpt lat="46.11138" lon="5.7343">
        <ele>1178.496558</ele>
        <time>2022-04-10T18:48:54.871Z</time>
      </trkpt>
      <trkpt lat="46.11138" lon="5.73481">
        <ele>1178.124635</ele>
        <time>2022-04-10T18:49:08.043Z</time>
      </trkpt>
      <trkpt lat="46.11157" lon="5.73554">
        <ele>1179.02163</ele>
        <time>2022-04-10T18:49:29.305Z</time>
      </trkpt>
      <trkpt lat="46.11111" lon="5.73552">
        <ele>1180.111529</ele>
        <time>2022-04-10T18:49:47.825Z</time>
      </trkpt>
      <trkpt lat="46.11107" lon="5.73553">
        <ele>1180.217528</ele>
        <time>2022-04-10T18:49:49.669Z</time>
      </trkpt>
      <trkpt lat="46.11047" lon="5.73545">
        <ele>1181.665985</ele>
        <time>2022-04-10T18:50:14.855Z</time>
      </trkpt>
      <trkpt lat="46.10993" lon="5.73547">
        <ele>1183.543779</ele>
        <time>2022-04-10T18:50:38.171Z</time>
      </trkpt>
      <trkpt lat="46.10909" lon="5.73502">
        <ele>1187.584048</ele>
        <time>2022-04-10T18:51:16.377Z</time>
      </trkpt>
      <trkpt lat="46.1085" lon="5.73475">
        <ele>1190.404335</ele>
        <time>2022-04-10T18:51:46.198Z</time>
      </trkpt>
      <trkpt lat="46.1076" lon="5.7345">
        <ele>1196.925513</ele>
        <time>2022-04-10T18:52:31.498Z</time>
      </trkpt>
      <trkpt lat="46.10744" lon="5.73456">
        <ele>1198.101227</ele>
        <time>2022-04-10T18:52:40.318Z</time>
      </trkpt>
      <trkpt lat="46.10739" lon="5.73464">
        <ele>1198.640807</ele>
        <time>2022-04-10T18:52:45.452Z</time>
      </trkpt>
      <trkpt lat="46.10734" lon="5.73532">
        <ele>1202.079116</ele>
        <time>2022-04-10T18:53:08.978Z</time>
      </trkpt>
      <trkpt lat="46.10737" lon="5.73549">
        <ele>1202.916359</ele>
        <time>2022-04-10T18:53:15.142Z</time>
      </trkpt>
      <trkpt lat="46.10778" lon="5.73595">
        <ele>1206.08096</ele>
        <time>2022-04-10T18:53:43.106Z</time>
      </trkpt>
      <trkpt lat="46.10783" lon="5.73632">
        <ele>1207.670273</ele>
        <time>2022-04-10T18:53:57.195Z</time>
      </trkpt>
      <trkpt lat="46.10756" lon="5.73822">
        <ele>1214.805047</ele>
        <time>2022-04-10T18:55:08.544Z</time>
      </trkpt>
      <trkpt lat="46.10739" lon="5.73834">
        <ele>1215.31469</ele>
        <time>2022-04-10T18:55:16.758Z</time>
      </trkpt>
      <trkpt lat="46.10659" lon="5.73864">
        <ele>1217.5863</ele>
        <time>2022-04-10T18:55:50.633Z</time>
      </trkpt>
      <trkpt lat="46.10576" lon="5.73881">
        <ele>1219.577186</ele>
        <time>2022-04-10T18:56:23.793Z</time>
      </trkpt>
      <trkpt lat="46.10506" lon="5.73943">
        <ele>1221.036552</ele>
        <time>2022-04-10T18:56:55.988Z</time>
      </trkpt>
      <trkpt lat="46.10433" lon="5.73918">
        <ele>1222.543254</ele>
        <time>2022-04-10T18:57:26.313Z</time>
      </trkpt>
      <trkpt lat="46.10345" lon="5.73867">
        <ele>1225.798498</ele>
        <time>2022-04-10T18:58:06.094Z</time>
      </trkpt>
      <trkpt lat="46.10221" lon="5.73819">
        <ele>1230.345967</ele>
        <time>2022-04-10T18:59:03.087Z</time>
      </trkpt>
      <trkpt lat="46.10194" lon="5.73817">
        <ele>1231.350997</ele>
        <time>2022-04-10T18:59:15.230Z</time>
      </trkpt>
      <trkpt lat="46.10174" lon="5.73806">
        <ele>1232.129096</ele>
        <time>2022-04-10T18:59:24.498Z</time>
      </trkpt>
      <trkpt lat="46.10137" lon="5.73763">
        <ele>1233.86953</ele>
        <time>2022-04-10T18:59:44.721Z</time>
      </trkpt>
      <trkpt lat="46.10064" lon="5.73727">
        <ele>1235.633423</ele>
        <time>2022-04-10T19:00:16.775Z</time>
      </trkpt>
      <trkpt lat="46.09917" lon="5.73661">
        <ele>1237.408271</ele>
        <time>2022-04-10T19:01:15.798Z</time>
      </trkpt>
      <trkpt lat="46.09869" lon="5.73628">
        <ele>1237.399103</ele>
        <time>2022-04-10T19:01:35.609Z</time>
      </trkpt>
      <trkpt lat="46.09809" lon="5.73624">
        <ele>1237.388736</ele>
        <time>2022-04-10T19:01:57.818Z</time>
      </trkpt>
      <trkpt lat="46.09756" lon="5.73611">
        <ele>1237.466037</ele>
        <time>2022-04-10T19:02:17.589Z</time>
      </trkpt>
      <trkpt lat="46.0971" lon="5.73592">
        <ele>1238.028121</ele>
        <time>2022-04-10T19:02:35.402Z</time>
      </trkpt>
      <trkpt lat="46.09676" lon="5.73569">
        <ele>1238.470834</ele>
        <time>2022-04-10T19:02:49.872Z</time>
      </trkpt>
      <trkpt lat="46.09634" lon="5.73551">
        <ele>1238.984915</ele>
        <time>2022-04-10T19:03:07.357Z</time>
      </trkpt>
      <trkpt lat="46.09587" lon="5.73505">
        <ele>1239.992909</ele>
        <time>2022-04-10T19:03:30.362Z</time>
      </trkpt>
      <trkpt lat="46.09519" lon="5.7346">
        <ele>1242.798522</ele>
        <time>2022-04-10T19:04:02.671Z</time>
      </trkpt>
      <trkpt lat="46.09498" lon="5.73455">
        <ele>1243.601917</ele>
        <time>2022-04-10T19:04:12.213Z</time>
      </trkpt>
      <trkpt lat="46.09409" lon="5.734">
        <ele>1247.095636</ele>
        <time>2022-04-10T19:04:55.263Z</time>
      </trkpt>
      <trkpt lat="46.09368" lon="5.73389">
        <ele>1248.429882</ele>
        <time>2022-04-10T19:05:12.845Z</time>
      </trkpt>
      <trkpt lat="46.09257" lon="5.73335">
        <ele>1252.17056</ele>
        <time>2022-04-10T19:06:01.991Z</time>
      </trkpt>
      <trkpt lat="46.09103" lon="5.73273">
        <ele>1255.228762</ele>
        <time>2022-04-10T19:07:06.462Z</time>
      </trkpt>
      <trkpt lat="46.08813" lon="5.732">
        <ele>1256.745313</ele>
        <time>2022-04-10T19:08:56.766Z</time>
      </trkpt>
      <trkpt lat="46.08772" lon="5.73192">
        <ele>1257.028017</ele>
        <time>2022-04-10T19:09:12.731Z</time>
      </trkpt>
      <trkpt lat="46.08585" lon="5.73148">
        <ele>1260.010426</ele>
        <time>2022-04-10T19:10:28.405Z</time>
      </trkpt>
      <trkpt lat="46.0851" lon="5.73147">
        <ele>1260.996794</ele>
        <time>2022-04-10T19:10:58.389Z</time>
      </trkpt>
      <trkpt lat="46.0831" lon="5.73155">
        <ele>1261.244278</ele>
        <time>2022-04-10T19:12:15.009Z</time>
      </trkpt>
      <trkpt lat="46.08226" lon="5.73148">
        <ele>1259.796017</ele>
        <time>2022-04-10T19:12:44.780Z</time>
      </trkpt>
      <trkpt lat="46.08098" lon="5.73161">
        <ele>1253.915138</ele>
        <time>2022-04-10T19:13:27.224Z</time>
      </trkpt>
      <trkpt lat="46.08078" lon="5.73155">
        <ele>1252.763327</ele>
        <time>2022-04-10T19:13:33.998Z</time>
      </trkpt>
      <trkpt lat="46.07992" lon="5.73114">
        <ele>1247.938686</ele>
        <time>2022-04-10T19:14:02.979Z</time>
      </trkpt>
      <trkpt lat="46.07887" lon="5.73049">
        <ele>1242.017096</ele>
        <time>2022-04-10T19:14:40.730Z</time>
      </trkpt>
      <trkpt lat="46.07877" lon="5.73034">
        <ele>1241.281517</ele>
        <time>2022-04-10T19:14:45.553Z</time>
      </trkpt>
      <trkpt lat="46.07845" lon="5.72934">
        <ele>1239.442119</ele>
        <time>2022-04-10T19:15:11.686Z</time>
      </trkpt>
      <trkpt lat="46.07816" lon="5.729">
        <ele>1238.910658</ele>
        <time>2022-04-10T19:15:24.900Z</time>
      </trkpt>
      <trkpt lat="46.07763" lon="5.72862">
        <ele>1238.076348</ele>
        <time>2022-04-10T19:15:46.698Z</time>
      </trkpt>
      <trkpt lat="46.07676" lon="5.72837">
        <ele>1240.303003</ele>
        <time>2022-04-10T19:16:22.205Z</time>
      </trkpt>
      <trkpt lat="46.0766" lon="5.72837">
        <ele>1240.977255</ele>
        <time>2022-04-10T19:16:28.743Z</time>
      </trkpt>
      <trkpt lat="46.07651" lon="5.72795">
        <ele>1242.291337</ele>
        <time>2022-04-10T19:16:44.213Z</time>
      </trkpt>
      <trkpt lat="46.07636" lon="5.7278">
        <ele>1243.068526</ele>
        <time>2022-04-10T19:16:54.139Z</time>
      </trkpt>
      <trkpt lat="46.07598" lon="5.72775">
        <ele>1244.658454</ele>
        <time>2022-04-10T19:17:15.345Z</time>
      </trkpt>
      <trkpt lat="46.07535" lon="5.72806">
        <ele>1250.554905</ele>
        <time>2022-04-10T19:17:59.072Z</time>
      </trkpt>
      <trkpt lat="46.07357" lon="5.7283">
        <ele>1268.590151</ele>
        <time>2022-04-10T19:20:12.292Z</time>
      </trkpt>
      <trkpt lat="46.07323" lon="5.72841">
        <ele>1272.083371</ele>
        <time>2022-04-10T19:20:39.014Z</time>
      </trkpt>
      <trkpt lat="46.07264" lon="5.72833">
        <ele>1277.933404</ele>
        <time>2022-04-10T19:21:19.686Z</time>
      </trkpt>
      <trkpt lat="46.07247" lon="5.72839">
        <ele>1279.645472</ele>
        <time>2022-04-10T19:21:31.092Z</time>
      </trkpt>
      <trkpt lat="46.07219" lon="5.72918">
        <ele>1283.541733</ele>
        <time>2022-04-10T19:22:07.714Z</time>
      </trkpt>
      <trkpt lat="46.07187" lon="5.7295">
        <ele>1285.372602</ele>
        <time>2022-04-10T19:22:28.618Z</time>
      </trkpt>
      <trkpt lat="46.07161" lon="5.72954">
        <ele>1286.601211</ele>
        <time>2022-04-10T19:22:42.170Z</time>
      </trkpt>
      <trkpt lat="46.07148" lon="5.72967">
        <ele>1287.352368</ele>
        <time>2022-04-10T19:22:50.373Z</time>
      </trkpt>
      <trkpt lat="46.07139" lon="5.72986">
        <ele>1288.0838</ele>
        <time>2022-04-10T19:22:58.249Z</time>
      </trkpt>
      <trkpt lat="46.07138" lon="5.72997">
        <ele>1288.459517</ele>
        <time>2022-04-10T19:23:02.175Z</time>
      </trkpt>
      <trkpt lat="46.07124" lon="5.73012">
        <ele>1289.304112</ele>
        <time>2022-04-10T19:23:10.894Z</time>
      </trkpt>
      <trkpt lat="46.07114" lon="5.73047">
        <ele>1290.353296</ele>
        <time>2022-04-10T19:23:23.448Z</time>
      </trkpt>
      <trkpt lat="46.07087" lon="5.7307">
        <ele>1291.339114</ele>
        <time>2022-04-10T19:23:37.772Z</time>
      </trkpt>
      <trkpt lat="46.07068" lon="5.731">
        <ele>1292.266256</ele>
        <time>2022-04-10T19:23:51.184Z</time>
      </trkpt>
      <trkpt lat="46.07054" lon="5.731">
        <ele>1292.708815</ele>
        <time>2022-04-10T19:23:57.549Z</time>
      </trkpt>
      <trkpt lat="46.07031" lon="5.73084">
        <ele>1293.534597</ele>
        <time>2022-04-10T19:24:09.864Z</time>
      </trkpt>
      <trkpt lat="46.06945" lon="5.73115">
        <ele>1297.258773</ele>
        <time>2022-04-10T19:24:56.747Z</time>
      </trkpt>
      <trkpt lat="46.06901" lon="5.73075">
        <ele>1301.255205</ele>
        <time>2022-04-10T19:25:26.661Z</time>
      </trkpt>
      <trkpt lat="46.06886" lon="5.73045">
        <ele>1303.227042</ele>
        <time>2022-04-10T19:25:43.975Z</time>
      </trkpt>
      <trkpt lat="46.06785" lon="5.72951">
        <ele>1312.283646</ele>
        <time>2022-04-10T19:27:02.698Z</time>
      </trkpt>
      <trkpt lat="46.06766" lon="5.72941">
        <ele>1313.734624</ele>
        <time>2022-04-10T19:27:17.195Z</time>
      </trkpt>
      <trkpt lat="46.06732" lon="5.72909">
        <ele>1316.690017</ele>
        <time>2022-04-10T19:27:41.927Z</time>
      </trkpt>
      <trkpt lat="46.06697" lon="5.72898">
        <ele>1319.316568</ele>
        <time>2022-04-10T19:28:02.863Z</time>
      </trkpt>
      <trkpt lat="46.06649" lon="5.72898">
        <ele>1322.741573</ele>
        <time>2022-04-10T19:28:29.266Z</time>
      </trkpt>
      <trkpt lat="46.06613" lon="5.72914">
        <ele>1324.242508</ele>
        <time>2022-04-10T19:28:49.274Z</time>
      </trkpt>
      <trkpt lat="46.06578" lon="5.729">
        <ele>1325.65769</ele>
        <time>2022-04-10T19:29:07.193Z</time>
      </trkpt>
      <trkpt lat="46.06545" lon="5.72922">
        <ele>1327.119645</ele>
        <time>2022-04-10T19:29:25.723Z</time>
      </trkpt>
      <trkpt lat="46.06516" lon="5.72917">
        <ele>1328.258421</ele>
        <time>2022-04-10T19:29:40.137Z</time>
      </trkpt>
      <trkpt lat="46.06475" lon="5.72922">
        <ele>1329.919629</ele>
        <time>2022-04-10T19:30:00.777Z</time>
      </trkpt>
      <trkpt lat="46.0637" lon="5.72877">
        <ele>1334.740919</ele>
        <time>2022-04-10T19:30:57.939Z</time>
      </trkpt>
      <trkpt lat="46.06332" lon="5.72885">
        <ele>1336.419676</ele>
        <time>2022-04-10T19:31:18.550Z</time>
      </trkpt>
      <trkpt lat="46.06254" lon="5.72854">
        <ele>1339.676527</ele>
        <time>2022-04-10T19:32:02.103Z</time>
      </trkpt>
      <trkpt lat="46.06167" lon="5.72841">
        <ele>1342.968921</ele>
        <time>2022-04-10T19:32:46.810Z</time>
      </trkpt>
      <trkpt lat="46.06142" lon="5.72856">
        <ele>1344.004797</ele>
        <time>2022-04-10T19:33:00.519Z</time>
      </trkpt>
      <trkpt lat="46.06095" lon="5.72809">
        <ele>1343.694658</ele>
        <time>2022-04-10T19:33:27.561Z</time>
      </trkpt>
      <trkpt lat="46.06059" lon="5.72825">
        <ele>1343.01985</ele>
        <time>2022-04-10T19:33:43.633Z</time>
      </trkpt>
      <trkpt lat="46.06026" lon="5.72831">
        <ele>1342.421136</ele>
        <time>2022-04-10T19:33:57.076Z</time>
      </trkpt>
      <trkpt lat="46.05998" lon="5.72816">
        <ele>1341.893884</ele>
        <time>2022-04-10T19:34:08.839Z</time>
      </trkpt>
      <trkpt lat="46.05928" lon="5.72821">
        <ele>1339.39731</ele>
        <time>2022-04-10T19:34:36.538Z</time>
      </trkpt>
      <trkpt lat="46.05903" lon="5.72821">
        <ele>1338.088742</ele>
        <time>2022-04-10T19:34:46.003Z</time>
      </trkpt>
      <trkpt lat="46.05881" lon="5.72834">
        <ele>1336.833944</ele>
        <time>2022-04-10T19:34:55.432Z</time>
      </trkpt>
      <trkpt lat="46.05857" lon="5.72829">
        <ele>1335.567174</ele>
        <time>2022-04-10T19:35:04.795Z</time>
      </trkpt>
      <trkpt lat="46.05851" lon="5.72809">
        <ele>1334.7455</ele>
        <time>2022-04-10T19:35:10.551Z</time>
      </trkpt>
      <trkpt lat="46.05858" lon="5.72666">
        <ele>1330.036383</ele>
        <time>2022-04-10T19:35:49.047Z</time>
      </trkpt>
      <trkpt lat="46.05846" lon="5.72627">
        <ele>1328.824985</ele>
        <time>2022-04-10T19:36:01.238Z</time>
      </trkpt>
      <trkpt lat="46.05778" lon="5.72598">
        <ele>1325.975402</ele>
        <time>2022-04-10T19:36:29.648Z</time>
      </trkpt>
      <trkpt lat="46.05734" lon="5.72533">
        <ele>1323.724222</ele>
        <time>2022-04-10T19:36:54.925Z</time>
      </trkpt>
      <trkpt lat="46.05675" lon="5.72495">
        <ele>1321.872727</ele>
        <time>2022-04-10T19:37:21.048Z</time>
      </trkpt>
      <trkpt lat="46.05611" lon="5.72438">
        <ele>1319.698927</ele>
        <time>2022-04-10T19:37:52.328Z</time>
      </trkpt>
      <trkpt lat="46.0557" lon="5.72352">
        <ele>1318.186269</ele>
        <time>2022-04-10T19:38:22.559Z</time>
      </trkpt>
      <trkpt lat="46.05527" lon="5.72324">
        <ele>1317.271839</ele>
        <time>2022-04-10T19:38:42.425Z</time>
      </trkpt>
      <trkpt lat="46.05437" lon="5.72347">
        <ele>1315.026827</ele>
        <time>2022-04-10T19:39:21.034Z</time>
      </trkpt>
      <trkpt lat="46.05402" lon="5.72338">
        <ele>1313.478209</ele>
        <time>2022-04-10T19:39:35.202Z</time>
      </trkpt>
      <trkpt lat="46.05364" lon="5.72441">
        <ele>1309.947411</ele>
        <time>2022-04-10T19:40:06.976Z</time>
      </trkpt>
      <trkpt lat="46.05331" lon="5.72479">
        <ele>1308.102747</ele>
        <time>2022-04-10T19:40:23.109Z</time>
      </trkpt>
      <trkpt lat="46.05317" lon="5.72531">
        <ele>1305.858987</ele>
        <time>2022-04-10T19:40:37.800Z</time>
      </trkpt>
      <trkpt lat="46.05301" lon="5.72559">
        <ele>1304.365212</ele>
        <time>2022-04-10T19:40:47.525Z</time>
      </trkpt>
      <trkpt lat="46.05286" lon="5.72562">
        <ele>1303.453028</ele>
        <time>2022-04-10T19:40:53.274Z</time>
      </trkpt>
      <trkpt lat="46.05214" lon="5.7259">
        <ele>1299.026383</ele>
        <time>2022-04-10T19:41:21.575Z</time>
      </trkpt>
      <trkpt lat="46.05122" lon="5.72546">
        <ele>1293.51325</ele>
        <time>2022-04-10T19:41:58.832Z</time>
      </trkpt>
      <trkpt lat="46.04936" lon="5.7253">
        <ele>1283.392471</ele>
        <time>2022-04-10T19:43:11.046Z</time>
      </trkpt>
      <trkpt lat="46.04881" lon="5.72471">
        <ele>1279.885854</ele>
        <time>2022-04-10T19:43:38.151Z</time>
      </trkpt>
      <trkpt lat="46.04867" lon="5.72469">
        <ele>1279.14287</ele>
        <time>2022-04-10T19:43:43.880Z</time>
      </trkpt>
      <trkpt lat="46.048" lon="5.72424">
        <ele>1273.577733</ele>
        <time>2022-04-10T19:44:12.149Z</time>
      </trkpt>
      <trkpt lat="46.04768" lon="5.72417">
        <ele>1270.814072</ele>
        <time>2022-04-10T19:44:24.131Z</time>
      </trkpt>
      <trkpt lat="46.04733" lon="5.72417">
        <ele>1267.862601</ele>
        <time>2022-04-10T19:44:36.611Z</time>
      </trkpt>
      <trkpt lat="46.04702" lon="5.72404">
        <ele>1265.084326</ele>
        <time>2022-04-10T19:44:48.028Z</time>
      </trkpt>
      <trkpt lat="46.04672" lon="5.72403">
        <ele>1262.428641</ele>
        <time>2022-04-10T19:44:58.466Z</time>
      </trkpt>
      <trkpt lat="46.04646" lon="5.7239">
        <ele>1258.519977</ele>
        <time>2022-04-10T19:45:07.944Z</time>
      </trkpt>
      <trkpt lat="46.04555" lon="5.72418">
        <ele>1245.404184</ele>
        <time>2022-04-10T19:45:39.727Z</time>
      </trkpt>
      <trkpt lat="46.0454" lon="5.72402">
        <ele>1242.85185</ele>
        <time>2022-04-10T19:45:45.931Z</time>
      </trkpt>
      <trkpt lat="46.04503" lon="5.72394">
        <ele>1237.548254</ele>
        <time>2022-04-10T19:45:58.822Z</time>
      </trkpt>
      <trkpt lat="46.0449" lon="5.7236">
        <ele>1234.157384</ele>
        <time>2022-04-10T19:46:08.045Z</time>
      </trkpt>
      <trkpt lat="46.04479" lon="5.72347">
        <ele>1232.373971</ele>
        <time>2022-04-10T19:46:12.898Z</time>
      </trkpt>
      <trkpt lat="46.0444" lon="5.72329">
        <ele>1227.235271</ele>
        <time>2022-04-10T19:46:26.941Z</time>
      </trkpt>
      <trkpt lat="46.04414" lon="5.72299">
        <ele>1223.033748</ele>
        <time>2022-04-10T19:46:38.498Z</time>
      </trkpt>
      <trkpt lat="46.0439" lon="5.72298">
        <ele>1220.053233</ele>
        <time>2022-04-10T19:46:46.687Z</time>
      </trkpt>
      <trkpt lat="46.04361" lon="5.72266">
        <ele>1215.423532</ele>
        <time>2022-04-10T19:46:59.704Z</time>
      </trkpt>
      <trkpt lat="46.04337" lon="5.72256">
        <ele>1212.634719</ele>
        <time>2022-04-10T19:47:08.514Z</time>
      </trkpt>
      <trkpt lat="46.04321" lon="5.72242">
        <ele>1210.654264</ele>
        <time>2022-04-10T19:47:15.198Z</time>
      </trkpt>
      <trkpt lat="46.04316" lon="5.72229">
        <ele>1209.580705</ele>
        <time>2022-04-10T19:47:18.766Z</time>
      </trkpt>
      <trkpt lat="46.04306" lon="5.72182">
        <ele>1205.86542</ele>
        <time>2022-04-10T19:47:31.181Z</time>
      </trkpt>
      <trkpt lat="46.04286" lon="5.72129">
        <ele>1201.355432</ele>
        <time>2022-04-10T19:47:45.925Z</time>
      </trkpt>
      <trkpt lat="46.04283" lon="5.72114">
        <ele>1200.165251</ele>
        <time>2022-04-10T19:47:49.841Z</time>
      </trkpt>
      <trkpt lat="46.04291" lon="5.72059">
        <ele>1196.021964</ele>
        <time>2022-04-10T19:48:02.980Z</time>
      </trkpt>
      <trkpt lat="46.04298" lon="5.71977">
        <ele>1187.660598</ele>
        <time>2022-04-10T19:48:22.800Z</time>
      </trkpt>
      <trkpt lat="46.0431" lon="5.71908">
        <ele>1180.27925</ele>
        <time>2022-04-10T19:48:39.621Z</time>
      </trkpt>
      <trkpt lat="46.04298" lon="5.71924">
        <ele>1177.87882</ele>
        <time>2022-04-10T19:48:45.112Z</time>
      </trkpt>
      <trkpt lat="46.04286" lon="5.7188">
        <ele>1172.945373</ele>
        <time>2022-04-10T19:48:56.316Z</time>
      </trkpt>
      <trkpt lat="46.04281" lon="5.71771">
        <ele>1162.17808</ele>
        <time>2022-04-10T19:49:22.066Z</time>
      </trkpt>
      <trkpt lat="46.04269" lon="5.71741">
        <ele>1158.789215</ele>
        <time>2022-04-10T19:49:30.436Z</time>
      </trkpt>
      <trkpt lat="46.04274" lon="5.71705">
        <ele>1155.265313</ele>
        <time>2022-04-10T19:49:39.106Z</time>
      </trkpt>
      <trkpt lat="46.04268" lon="5.71684">
        <ele>1153.106602</ele>
        <time>2022-04-10T19:49:44.453Z</time>
      </trkpt>
      <trkpt lat="46.04244" lon="5.71662">
        <ele>1149.185563</ele>
        <time>2022-04-10T19:49:54.273Z</time>
      </trkpt>
      <trkpt lat="46.04234" lon="5.71643">
        <ele>1146.876835</ele>
        <time>2022-04-10T19:50:00.212Z</time>
      </trkpt>
      <trkpt lat="46.04225" lon="5.71601">
        <ele>1143.067645</ele>
        <time>2022-04-10T19:50:11.273Z</time>
      </trkpt>
      <trkpt lat="46.04223" lon="5.71583">
        <ele>1142.046838</ele>
        <time>2022-04-10T19:50:16.204Z</time>
      </trkpt>
      <trkpt lat="46.04228" lon="5.71529">
        <ele>1139.169836</ele>
        <time>2022-04-10T19:50:30.203Z</time>
      </trkpt>
      <trkpt lat="46.04135" lon="5.71515">
        <ele>1131.955881</ele>
        <time>2022-04-10T19:51:05.332Z</time>
      </trkpt>
      <trkpt lat="46.04102" lon="5.71489">
        <ele>1128.922185</ele>
        <time>2022-04-10T19:51:18.522Z</time>
      </trkpt>
      <trkpt lat="46.04082" lon="5.71458">
        <ele>1126.157712</ele>
        <time>2022-04-10T19:51:29.194Z</time>
      </trkpt>
      <trkpt lat="46.04075" lon="5.71431">
        <ele>1124.270871</ele>
        <time>2022-04-10T19:51:36.942Z</time>
      </trkpt>
      <trkpt lat="46.04073" lon="5.71383">
        <ele>1121.187053</ele>
        <time>2022-04-10T19:51:49.133Z</time>
      </trkpt>
      <trkpt lat="46.0408" lon="5.71353">
        <ele>1119.138651</ele>
        <time>2022-04-10T19:51:56.948Z</time>
      </trkpt>
      <trkpt lat="46.04048" lon="5.7131">
        <ele>1115.067897</ele>
        <time>2022-04-10T19:52:12.441Z</time>
      </trkpt>
      <trkpt lat="46.04007" lon="5.71272">
        <ele>1109.64329</ele>
        <time>2022-04-10T19:52:29.231Z</time>
      </trkpt>
      <trkpt lat="46.03986" lon="5.71245">
        <ele>1105.923135</ele>
        <time>2022-04-10T19:52:39.167Z</time>
      </trkpt>
      <trkpt lat="46.04002" lon="5.71134">
        <ele>1095.864227</ele>
        <time>2022-04-10T19:53:05.991Z</time>
      </trkpt>
      <trkpt lat="46.03996" lon="5.71082">
        <ele>1091.106222</ele>
        <time>2022-04-10T19:53:18.692Z</time>
      </trkpt>
      <trkpt lat="46.04009" lon="5.70914">
        <ele>1076.522976</ele>
        <time>2022-04-10T19:53:58.883Z</time>
      </trkpt>
      <trkpt lat="46.04041" lon="5.70853">
        <ele>1069.872775</ele>
        <time>2022-04-10T19:54:17.293Z</time>
      </trkpt>
      <trkpt lat="46.04045" lon="5.70775">
        <ele>1064.852014</ele>
        <time>2022-04-10T19:54:36.321Z</time>
      </trkpt>
      <trkpt lat="46.04033" lon="5.70669">
        <ele>1059.246524</ele>
        <time>2022-04-10T19:55:04.230Z</time>
      </trkpt>
      <trkpt lat="46.04029" lon="5.70591">
        <ele>1055.216935</ele>
        <time>2022-04-10T19:55:25.038Z</time>
      </trkpt>
      <trkpt lat="46.03963" lon="5.70489">
        <ele>1049.295833</ele>
        <time>2022-04-10T19:56:02.244Z</time>
      </trkpt>
      <trkpt lat="46.03973" lon="5.70439">
        <ele>1047.203513</ele>
        <time>2022-04-10T19:56:13.890Z</time>
      </trkpt>
      <trkpt lat="46.03971" lon="5.70367">
        <ele>1044.297215</ele>
        <time>2022-04-10T19:56:30.229Z</time>
      </trkpt>
      <trkpt lat="46.03965" lon="5.70339">
        <ele>1043.534226</ele>
        <time>2022-04-10T19:56:36.819Z</time>
      </trkpt>
      <trkpt lat="46.03959" lon="5.70323">
        <ele>1043.534226</ele>
        <time>2022-04-10T19:56:41.152Z</time>
      </trkpt>
      <trkpt lat="46.0393" lon="5.70263">
        <ele>1043.534226</ele>
        <time>2022-04-10T19:56:58.226Z</time>
      </trkpt>
      <trkpt lat="46.03896" lon="5.70153">
        <ele>1043.534226</ele>
        <time>2022-04-10T19:57:27.553Z</time>
      </trkpt>
    </trkseg>
  </trk>
</gpx>